Bibo Regio — HE6415 — position and weather

sailwx.info

Track history (hours):
 
Tides and Currents Weather Stations Pressure Air Temp Water Temp Dewpoint Dewpoint Depression Visibility Wind Speed Wind Dir Waves Ship Positions

Bibo Regio

Last reported at 2015-Jan-30 14:11 UTC. Time now 2015-Jan-30 17:02 UTC.
Position N 47°35' E 007°35'.

Length 32 m.

Type: Ship. MMSI: 269056415.

Date/timePositionNaut miles runAvg speedWind from/ knotsBaromVisibWave heightAir tempDewpointWater temp
2015-Jan-30 14:11N 47°35' E 007°35'0 0.0
2015-Jan-30 13:23N 47°35' E 007°35'0 0.0
2015-Jan-30 12:29N 47°35' E 007°35'1 1.1
2015-Jan-30 11:28N 47°36' E 007°35'1 1.2
2015-Jan-30 10:32N 47°35' E 007°35'0 0.0
2015-Jan-30 09:32N 47°35' E 007°35'0 0.3
2015-Jan-30 08:33N 47°35' E 007°35'0 0.4
2015-Jan-30 07:34N 47°35' E 007°36'0 0.4
2015-Jan-30 06:31N 47°35' E 007°35'0 0.0
2015-Jan-30 05:32N 47°35' E 007°35'0 0.0
2015-Jan-30 04:33N 47°35' E 007°35'0 0.0
2015-Jan-30 03:33N 47°35' E 007°35'0 0.0
2015-Jan-30 02:32N 47°35' E 007°35'0 0.0
2015-Jan-30 01:33N 47°35' E 007°35'0 0.0
2015-Jan-30 00:33N 47°35' E 007°35'0 0.0
2015-Jan-29 23:33N 47°35' E 007°35'0 0.0
2015-Jan-29 22:27N 47°35' E 007°35'0 0.0
2015-Jan-29 20:32N 47°35' E 007°35'0 0.0
2015-Jan-29 19:20N 47°35' E 007°35'0 0.0
2015-Jan-29 15:21N 47°35' E 007°35'0 0.0
2015-Jan-29 14:31N 47°35' E 007°35'0 0.0
2015-Jan-29 13:33N 47°35' E 007°35'0 0.0
2015-Jan-29 12:27N 47°35' E 007°35'0 0.0
2015-Jan-29 11:25N 47°35' E 007°35'0 0.1
2015-Jan-29 10:33N 47°35' E 007°35'1 1.0
2015-Jan-29 09:32N 47°36' E 007°36'1 0.9
2015-Jan-29 08:32N 47°35' E 007°35'0 0.0
2015-Jan-29 07:33N 47°35' E 007°35'0 0.0
2015-Jan-29 05:21N 47°35' E 007°35'0 0.0
2015-Jan-28 14:20N 47°35' E 007°35'0 0.0
2015-Jan-28 13:33N 47°35' E 007°35'0 0.0
2015-Jan-28 12:33N 47°35' E 007°35'0 0.0
2015-Jan-28 11:33N 47°35' E 007°35'0 0.0
2015-Jan-28 10:33N 47°35' E 007°35'0 0.0
2015-Jan-28 09:33N 47°35' E 007°35'0 0.0
2015-Jan-28 08:33N 47°35' E 007°35'0 0.0
2015-Jan-28 07:33N 47°35' E 007°35'0 0.0
2015-Jan-28 06:33N 47°35' E 007°35'0 0.0
2015-Jan-28 05:30N 47°35' E 007°35'0 0.0
2015-Jan-27 15:08N 47°35' E 007°35'0 0.0
2015-Jan-27 14:30N 47°35' E 007°35'0 0.0
2015-Jan-27 13:31N 47°35' E 007°35'0 0.0
2015-Jan-27 10:28N 47°35' E 007°35'2 2.4
2015-Jan-27 09:34N 47°34' E 007°37'1 1.0
2015-Jan-27 08:32N 47°33' E 007°36'2 0.1
2015-Jan-26 13:30N 47°35' E 007°35'0 0.0
2015-Jan-26 11:33N 47°35' E 007°35'0 0.0
2015-Jan-26 10:33N 47°35' E 007°35'0 0.0
2015-Jan-26 09:34N 47°35' E 007°35'0 0.0
2015-Jan-26 08:33N 47°35' E 007°35'0 0.0
2015-Jan-26 07:33N 47°35' E 007°35'0 0.0
2015-Jan-26 06:34N 47°35' E 007°35'0 0.0
2015-Jan-26 05:33N 47°35' E 007°35'0 0.0
2015-Jan-26 04:33N 47°35' E 007°35'0 0.0
2015-Jan-26 03:34N 47°35' E 007°35'0 0.0
2015-Jan-26 02:33N 47°35' E 007°35'0 0.0
2015-Jan-26 01:33N 47°35' E 007°35'0 0.0
2015-Jan-26 00:33N 47°35' E 007°35'0 0.0
2015-Jan-25 23:33N 47°35' E 007°35'0 0.0
2015-Jan-25 22:33N 47°35' E 007°35'0 0.0
2015-Jan-25 21:33N 47°35' E 007°35'0 0.0
2015-Jan-25 20:33N 47°35' E 007°35'0 0.0
2015-Jan-25 19:33N 47°35' E 007°35'0 0.0
2015-Jan-25 18:33N 47°35' E 007°35'0 0.0
2015-Jan-25 17:34N 47°35' E 007°35'0 0.0
2015-Jan-25 16:33N 47°35' E 007°35'0 0.0
2015-Jan-25 15:34N 47°35' E 007°35'0 0.0
2015-Jan-25 14:33N 47°35' E 007°35'0 0.0
2015-Jan-25 13:33N 47°35' E 007°35'0 0.0
2015-Jan-25 12:33N 47°35' E 007°35'0 0.0
2015-Jan-25 11:04N 47°35' E 007°35'0 0.0
2015-Jan-25 10:10N 47°35' E 007°35'0 0.0
2015-Jan-24 20:07N 47°35' E 007°35'0 0.0
2015-Jan-24 19:13N 47°35' E 007°35'0 0.0
2015-Jan-24 17:21N 47°35' E 007°35'0 0.0
2015-Jan-24 15:33N 47°35' E 007°35'2 2.3
2015-Jan-24 14:33N 47°34' E 007°38'0 0.0
2015-Jan-24 13:33N 47°34' E 007°38'2 1.7
2015-Jan-24 12:33N 47°34' E 007°35'1 0.3
2015-Jan-24 07:14N 47°35' E 007°35'0 0.0
2015-Jan-24 06:30N 47°35' E 007°35'0 0.0
2015-Jan-24 03:30N 47°35' E 007°35'0 0.0
2015-Jan-24 01:21N 47°35' E 007°35'0 0.0
2015-Jan-23 16:12N 47°35' E 007°35'0 0.0
2015-Jan-23 15:31N 47°35' E 007°35'0 0.0
2015-Jan-23 13:33N 47°35' E 007°35'0 0.0
2015-Jan-23 12:33N 47°35' E 007°35'0 0.0
2015-Jan-23 11:34N 47°35' E 007°35'0 0.0
2015-Jan-23 10:34N 47°35' E 007°35'0 0.0
2015-Jan-23 09:33N 47°35' E 007°35'0 0.5
2015-Jan-23 08:33N 47°35' E 007°36'0 0.0
2015-Jan-23 07:33N 47°35' E 007°36'0 0.4
2015-Jan-23 06:31N 47°35' E 007°35'0 0.0
2015-Jan-23 05:33N 47°35' E 007°35'0 0.0
2015-Jan-23 04:33N 47°35' E 007°35'0 0.0
2015-Jan-23 03:31N 47°35' E 007°35'0 0.0
2015-Jan-23 02:33N 47°35' E 007°35'0 0.0
2015-Jan-23 01:33N 47°35' E 007°35'0 0.0
2015-Jan-23 00:32N 47°35' E 007°35'0 0.0
2015-Jan-22 23:33N 47°35' E 007°35'0 0.0
2015-Jan-22 22:33N 47°35' E 007°35'0 0.0
2015-Jan-22 21:33N 47°35' E 007°35'0 0.0
2015-Jan-22 20:33N 47°35' E 007°35'0 0.0
2015-Jan-22 19:33N 47°35' E 007°35'0 0.0
2015-Jan-22 18:33N 47°35' E 007°35'0 0.0
2015-Jan-22 17:33N 47°35' E 007°35'0 0.0
2015-Jan-22 16:33N 47°35' E 007°35'0 0.0
2015-Jan-22 15:33N 47°35' E 007°35'0 0.0
2015-Jan-22 14:33N 47°35' E 007°35'0 0.0
2015-Jan-22 13:33N 47°35' E 007°35'0 0.0
2015-Jan-22 12:33N 47°35' E 007°35'0 0.0
2015-Jan-22 11:33N 47°35' E 007°35'0 0.3
2015-Jan-22 10:33N 47°35' E 007°36'0 0.3
2015-Jan-22 09:33N 47°35' E 007°36'0 0.1
2015-Jan-22 08:33N 47°35' E 007°35'1 1.1
2015-Jan-22 07:33N 47°36' E 007°35'1 1.1
2015-Jan-22 06:33N 47°35' E 007°35'0 0.0
2015-Jan-22 05:33N 47°35' E 007°35'0 0.0
2015-Jan-22 04:33N 47°35' E 007°35'0 0.0
2015-Jan-22 03:33N 47°35' E 007°35'0 0.0
2015-Jan-22 02:33N 47°35' E 007°35'0 0.0
2015-Jan-22 01:33N 47°35' E 007°35'0 0.0
2015-Jan-22 00:33N 47°35' E 007°35'0 0.0
2015-Jan-21 15:07N 47°35' E 007°35'0 0.0
2015-Jan-21 13:09N 47°35' E 007°35'0 0.0
2015-Jan-21 12:30N 47°35' E 007°35'0 0.0
2015-Jan-21 11:32N 47°35' E 007°35'0 0.0
2015-Jan-21 06:33N 47°35' E 007°35'0 0.0
2015-Jan-21 05:33N 47°35' E 007°35'0 0.0
2015-Jan-21 04:23N 47°35' E 007°35'0 0.0
2015-Jan-21 03:26N 47°35' E 007°35'0 0.0
2015-Jan-21 02:33N 47°35' E 007°35'0 0.0
2015-Jan-20 21:27N 47°35' E 007°35'  
Track history (hours):
 
Tides and Currents Weather Stations Pressure Air Temp Water Temp Dewpoint Dewpoint Depression Visibility Wind Speed Wind Dir Waves Ship Positions

Bibo Regio

Last reported at 2015-Jan-30 14:11 UTC. Time now 2015-Jan-30 17:02 UTC.
Position N 47°35' E 007°35'.

Length 32 m.

Type: Ship. MMSI: 269056415.

Date/timePositionNaut miles runAvg speedWind from/ knotsBaromVisibWave heightAir tempDewpointWater temp
2015-Jan-30 14:11N 47°35' E 007°35'0 0.0
2015-Jan-30 13:23N 47°35' E 007°35'0 0.0
2015-Jan-30 12:29N 47°35' E 007°35'1 1.1
2015-Jan-30 11:28N 47°36' E 007°35'1 1.2
2015-Jan-30 10:32N 47°35' E 007°35'0 0.0
2015-Jan-30 09:32N 47°35' E 007°35'0 0.3
2015-Jan-30 08:33N 47°35' E 007°35'0 0.4
2015-Jan-30 07:34N 47°35' E 007°36'0 0.4
2015-Jan-30 06:31N 47°35' E 007°35'0 0.0
2015-Jan-30 05:32N 47°35' E 007°35'0 0.0
2015-Jan-30 04:33N 47°35' E 007°35'0 0.0
2015-Jan-30 03:33N 47°35' E 007°35'0 0.0
2015-Jan-30 02:32N 47°35' E 007°35'0 0.0
2015-Jan-30 01:33N 47°35' E 007°35'0 0.0
2015-Jan-30 00:33N 47°35' E 007°35'0 0.0
2015-Jan-29 23:33N 47°35' E 007°35'0 0.0
2015-Jan-29 22:27N 47°35' E 007°35'0 0.0
2015-Jan-29 20:32N 47°35' E 007°35'0 0.0
2015-Jan-29 19:20N 47°35' E 007°35'0 0.0
2015-Jan-29 15:21N 47°35' E 007°35'0 0.0
2015-Jan-29 14:31N 47°35' E 007°35'0 0.0
2015-Jan-29 13:33N 47°35' E 007°35'0 0.0
2015-Jan-29 12:27N 47°35' E 007°35'0 0.0
2015-Jan-29 11:25N 47°35' E 007°35'0 0.1
2015-Jan-29 10:33N 47°35' E 007°35'1 1.0
2015-Jan-29 09:32N 47°36' E 007°36'1 0.9
2015-Jan-29 08:32N 47°35' E 007°35'0 0.0
2015-Jan-29 07:33N 47°35' E 007°35'0 0.0
2015-Jan-29 05:21N 47°35' E 007°35'0 0.0
2015-Jan-28 14:20N 47°35' E 007°35'0 0.0
2015-Jan-28 13:33N 47°35' E 007°35'0 0.0
2015-Jan-28 12:33N 47°35' E 007°35'0 0.0
2015-Jan-28 11:33N 47°35' E 007°35'0 0.0
2015-Jan-28 10:33N 47°35' E 007°35'0 0.0
2015-Jan-28 09:33N 47°35' E 007°35'0 0.0
2015-Jan-28 08:33N 47°35' E 007°35'0 0.0
2015-Jan-28 07:33N 47°35' E 007°35'0 0.0
2015-Jan-28 06:33N 47°35' E 007°35'0 0.0
2015-Jan-28 05:30N 47°35' E 007°35'0 0.0
2015-Jan-27 15:08N 47°35' E 007°35'0 0.0
2015-Jan-27 14:30N 47°35' E 007°35'0 0.0
2015-Jan-27 13:31N 47°35' E 007°35'0 0.0
2015-Jan-27 10:28N 47°35' E 007°35'2 2.4
2015-Jan-27 09:34N 47°34' E 007°37'1 1.0
2015-Jan-27 08:32N 47°33' E 007°36'2 0.1
2015-Jan-26 13:30N 47°35' E 007°35'0 0.0
2015-Jan-26 11:33N 47°35' E 007°35'0 0.0
2015-Jan-26 10:33N 47°35' E 007°35'0 0.0
2015-Jan-26 09:34N 47°35' E 007°35'0 0.0
2015-Jan-26 08:33N 47°35' E 007°35'0 0.0
2015-Jan-26 07:33N 47°35' E 007°35'0 0.0
2015-Jan-26 06:34N 47°35' E 007°35'0 0.0
2015-Jan-26 05:33N 47°35' E 007°35'0 0.0
2015-Jan-26 04:33N 47°35' E 007°35'0 0.0
2015-Jan-26 03:34N 47°35' E 007°35'0 0.0
2015-Jan-26 02:33N 47°35' E 007°35'0 0.0
2015-Jan-26 01:33N 47°35' E 007°35'0 0.0
2015-Jan-26 00:33N 47°35' E 007°35'0 0.0
2015-Jan-25 23:33N 47°35' E 007°35'0 0.0
2015-Jan-25 22:33N 47°35' E 007°35'0 0.0
2015-Jan-25 21:33N 47°35' E 007°35'0 0.0
2015-Jan-25 20:33N 47°35' E 007°35'0 0.0
2015-Jan-25 19:33N 47°35' E 007°35'0 0.0
2015-Jan-25 18:33N 47°35' E 007°35'0 0.0
2015-Jan-25 17:34N 47°35' E 007°35'0 0.0
2015-Jan-25 16:33N 47°35' E 007°35'0 0.0
2015-Jan-25 15:34N 47°35' E 007°35'0 0.0
2015-Jan-25 14:33N 47°35' E 007°35'0 0.0
2015-Jan-25 13:33N 47°35' E 007°35'0 0.0
2015-Jan-25 12:33N 47°35' E 007°35'0 0.0
2015-Jan-25 11:04N 47°35' E 007°35'0 0.0
2015-Jan-25 10:10N 47°35' E 007°35'0 0.0
2015-Jan-24 20:07N 47°35' E 007°35'0 0.0
2015-Jan-24 19:13N 47°35' E 007°35'0 0.0
2015-Jan-24 17:21N 47°35' E 007°35'0 0.0
2015-Jan-24 15:33N 47°35' E 007°35'2 2.3
2015-Jan-24 14:33N 47°34' E 007°38'0 0.0
2015-Jan-24 13:33N 47°34' E 007°38'2 1.7
2015-Jan-24 12:33N 47°34' E 007°35'1 0.3
2015-Jan-24 07:14N 47°35' E 007°35'0 0.0
2015-Jan-24 06:30N 47°35' E 007°35'0 0.0
2015-Jan-24 03:30N 47°35' E 007°35'0 0.0
2015-Jan-24 01:21N 47°35' E 007°35'0 0.0
2015-Jan-23 16:12N 47°35' E 007°35'0 0.0
2015-Jan-23 15:31N 47°35' E 007°35'0 0.0
2015-Jan-23 13:33N 47°35' E 007°35'0 0.0
2015-Jan-23 12:33N 47°35' E 007°35'0 0.0
2015-Jan-23 11:34N 47°35' E 007°35'0 0.0
2015-Jan-23 10:34N 47°35' E 007°35'0 0.0
2015-Jan-23 09:33N 47°35' E 007°35'0 0.5
2015-Jan-23 08:33N 47°35' E 007°36'0 0.0
2015-Jan-23 07:33N 47°35' E 007°36'0 0.4
2015-Jan-23 06:31N 47°35' E 007°35'0 0.0
2015-Jan-23 05:33N 47°35' E 007°35'0 0.0
2015-Jan-23 04:33N 47°35' E 007°35'0 0.0
2015-Jan-23 03:31N 47°35' E 007°35'0 0.0
2015-Jan-23 02:33N 47°35' E 007°35'0 0.0
2015-Jan-23 01:33N 47°35' E 007°35'0 0.0
2015-Jan-23 00:32N 47°35' E 007°35'0 0.0
2015-Jan-22 23:33N 47°35' E 007°35'0 0.0
2015-Jan-22 22:33N 47°35' E 007°35'0 0.0
2015-Jan-22 21:33N 47°35' E 007°35'0 0.0
2015-Jan-22 20:33N 47°35' E 007°35'0 0.0
2015-Jan-22 19:33N 47°35' E 007°35'0 0.0
2015-Jan-22 18:33N 47°35' E 007°35'0 0.0
2015-Jan-22 17:33N 47°35' E 007°35'0 0.0
2015-Jan-22 16:33N 47°35' E 007°35'0 0.0
2015-Jan-22 15:33N 47°35' E 007°35'0 0.0
2015-Jan-22 14:33N 47°35' E 007°35'0 0.0
2015-Jan-22 13:33N 47°35' E 007°35'0 0.0
2015-Jan-22 12:33N 47°35' E 007°35'0 0.0
2015-Jan-22 11:33N 47°35' E 007°35'0 0.3
2015-Jan-22 10:33N 47°35' E 007°36'0 0.3
2015-Jan-22 09:33N 47°35' E 007°36'0 0.1
2015-Jan-22 08:33N 47°35' E 007°35'1 1.1
2015-Jan-22 07:33N 47°36' E 007°35'1 1.1
2015-Jan-22 06:33N 47°35' E 007°35'0 0.0
2015-Jan-22 05:33N 47°35' E 007°35'0 0.0
2015-Jan-22 04:33N 47°35' E 007°35'0 0.0
2015-Jan-22 03:33N 47°35' E 007°35'0 0.0
2015-Jan-22 02:33N 47°35' E 007°35'0 0.0
2015-Jan-22 01:33N 47°35' E 007°35'0 0.0
2015-Jan-22 00:33N 47°35' E 007°35'0 0.0
2015-Jan-21 15:07N 47°35' E 007°35'0 0.0
2015-Jan-21 13:09N 47°35' E 007°35'0 0.0
2015-Jan-21 12:30N 47°35' E 007°35'0 0.0
2015-Jan-21 11:32N 47°35' E 007°35'0 0.0
2015-Jan-21 06:33N 47°35' E 007°35'0 0.0
2015-Jan-21 05:33N 47°35' E 007°35'0 0.0
2015-Jan-21 04:23N 47°35' E 007°35'0 0.0
2015-Jan-21 03:26N 47°35' E 007°35'0 0.0
2015-Jan-21 02:33N 47°35' E 007°35'0 0.0
2015-Jan-20 21:27N 47°35' E 007°35'  

Dump ship's entire track history